Weather at Bisha Airport

Public forecast

Using degrees Celsius for public forecast. Weather courtesy of forecast.io.

Current aviation weather report (METAR) for Bisha Airport

Retrieved 2021/05/12 08:00 UTC (45 minutes ago):

OEBH 120800Z 31010KT CAVOK 34/04 Q1014 NOSIG

Aviation forecast (TAF) for Bisha Airport

Forecast is more than 6 hours old.

Retrieved 2021-05-12 00:06 UTC (9 hours ago):

TAF OEBH 112300Z 1200/1306 VRB03KT 9999 SCT030 BECMG 1206/1208 27013KT TEMPO 1206/1216 BKN040